Time;durP1;ratioP1;P1;durP2;ratioP2;P2;SDS_P1;SDS_P2;PMS_P1;PMS_P2;Temp;Humidity;BMP_temperature;BMP_pressure;BME280_temperature;BME280_humidity;BME280_pressure;Samples;Min_cycle;Max_cycle;Signal;HPM_P1;HPM_P2
2021/10/03 00:00:16;;;;;;;2.60;1.23;;;14.90;99.90;;;;;;5016689;28;20880;-79
2021/10/03 00:02:45;;;;;;;1.73;1.20;;;14.90;99.90;;;;;;5016949;28;20491;-79
2021/10/03 00:05:14;;;;;;;2.67;0.90;;;14.80;99.90;;;;;;5016620;28;20435;-79
2021/10/03 00:07:42;;;;;;;0.83;0.70;;;14.80;99.90;;;;;;5016526;28;20447;-79
2021/10/03 00:10:10;;;;;;;0.90;0.73;;;14.80;99.90;;;;;;5016430;28;20475;-79
2021/10/03 00:12:37;;;;;;;0.93;0.90;;;14.80;99.90;;;;;;5016708;28;20791;-79
2021/10/03 00:15:04;;;;;;;1.47;1.37;;;14.80;99.90;;;;;;5016715;28;20494;-79
2021/10/03 00:17:31;;;;;;;0.57;0.40;;;14.80;99.90;;;;;;5016710;28;20470;-85
2021/10/03 00:20:00;;;;;;;2.53;0.70;;;14.80;99.90;;;;;;5016616;28;20471;-85
2021/10/03 00:22:29;;;;;;;1.57;0.70;;;14.70;99.90;;;;;;5016584;28;20814;-85
2021/10/03 00:24:57;;;;;;;0.47;0.47;;;14.70;99.90;;;;;;5016554;28;20447;-85
2021/10/03 00:27:24;;;;;;;0.80;0.80;;;14.70;99.90;;;;;;5016442;28;20482;-85
2021/10/03 00:29:51;;;;;;;1.13;1.03;;;14.70;99.90;;;;;;5016366;28;20475;-85
2021/10/03 00:32:18;;;;;;;1.57;0.80;;;14.70;99.90;;;;;;5016262;28;20438;-85
2021/10/03 00:34:45;;;;;;;1.43;0.60;;;14.70;99.90;;;;;;5016151;28;20438;-85
2021/10/03 00:37:12;;;;;;;2.03;0.70;;;14.70;99.90;;;;;;5016067;28;20439;-85
2021/10/03 00:39:40;;;;;;;1.00;0.80;;;14.70;99.90;;;;;;5016239;28;20455;-85
2021/10/03 00:42:07;;;;;;;0.60;0.60;;;14.60;99.90;;;;;;5015368;28;20943;-85
2021/10/03 00:44:34;;;;;;;0.97;0.70;;;14.70;99.90;;;;;;5015530;28;20459;-79
2021/10/03 00:47:01;;;;;;;0.50;0.50;;;14.60;99.90;;;;;;5015767;28;20492;-78
2021/10/03 00:49:33;;;;;;;0.60;0.50;;;14.70;99.90;;;;;;5016122;28;20454;-79
2021/10/03 00:52:00;;;;;;;1.07;0.77;;;14.70;99.90;;;;;;5015747;28;20916;-79
2021/10/03 00:54:27;;;;;;;0.80;0.73;;;14.70;99.90;;;;;;5016000;28;20444;-79
2021/10/03 00:56:55;;;;;;;0.70;0.70;;;14.70;99.90;;;;;;5015712;28;20455;-78
2021/10/03 00:59:22;;;;;;;1.50;0.63;;;14.60;99.90;;;;;;5015884;28;20451;-78
2021/10/03 01:01:49;;;;;;;0.70;0.70;;;14.60;99.90;;;;;;5015543;28;20979;-78
2021/10/03 01:04:16;;;;;;;0.50;0.47;;;14.60;99.90;;;;;;5015458;28;20447;-78
2021/10/03 01:06:43;;;;;;;0.50;0.50;;;14.60;99.90;;;;;;5015655;28;20484;-78
2021/10/03 01:09:10;;;;;;;0.50;0.50;;;14.60;99.90;;;;;;5015730;28;20448;-83
2021/10/03 01:11:36;;;;;;;1.33;0.73;;;14.60;99.90;;;;;;5015634;28;20471;-83
2021/10/03 01:14:04;;;;;;;1.27;0.70;;;14.70;99.90;;;;;;5015385;28;20447;-83
2021/10/03 01:16:31;;;;;;;2.03;1.30;;;14.70;99.90;;;;;;5015543;28;20443;-83
2021/10/03 01:18:58;;;;;;;0.40;0.40;;;14.80;99.90;;;;;;5015590;28;20444;-83
2021/10/03 01:21:27;;;;;;;0.77;0.57;;;14.80;99.90;;;;;;5015428;28;20468;-83
2021/10/03 01:23:54;;;;;;;1.17;0.70;;;14.80;99.90;;;;;;5015342;28;20467;-83
2021/10/03 01:26:21;;;;;;;0.60;0.57;;;14.90;99.90;;;;;;5015328;28;20533;-83
2021/10/03 01:28:53;;;;;;;0.73;0.73;;;14.90;99.90;;;;;;5015338;28;20452;-83
2021/10/03 01:31:20;;;;;;;0.53;0.53;;;15.00;99.90;;;;;;5015257;28;20567;-83
2021/10/03 01:33:46;;;;;;;0.53;0.50;;;15.00;99.90;;;;;;5014940;28;20452;-83
2021/10/03 01:36:13;;;;;;;0.50;0.50;;;15.00;99.90;;;;;;5014892;28;20960;-83
2021/10/03 01:38:42;;;;;;;0.60;0.60;;;15.00;99.90;;;;;;5015173;28;20451;-83
2021/10/03 01:41:08;;;;;;;0.50;0.50;;;15.10;99.90;;;;;;5015006;28;20561;-83
2021/10/03 01:43:35;;;;;;;0.60;0.40;;;15.10;99.90;;;;;;5015104;28;20439;-83
2021/10/03 01:46:03;;;;;;;0.70;0.47;;;15.00;99.90;;;;;;5014704;28;20490;-83
2021/10/03 01:48:30;;;;;;;0.60;0.53;;;15.00;99.90;;;;;;5015015;28;20458;-83
2021/10/03 01:50:59;;;;;;;0.67;0.67;;;15.00;99.90;;;;;;5014557;28;20836;-83
2021/10/03 01:53:28;;;;;;;1.43;0.40;;;15.10;99.90;;;;;;5014635;28;20859;-83
2021/10/03 01:55:57;;;;;;;1.27;0.60;;;15.10;99.90;;;;;;5014469;28;20448;-83
2021/10/03 01:58:26;;;;;;;1.70;0.77;;;15.10;99.90;;;;;;5014835;28;20858;-83
2021/10/03 02:00:57;;;;;;;0.73;0.73;;;15.10;99.90;;;;;;5014537;28;20486;-78
2021/10/03 02:03:24;;;;;;;1.17;0.60;;;15.10;99.90;;;;;;5014567;28;20420;-83
2021/10/03 02:05:51;;;;;;;0.60;0.60;;;15.00;99.90;;;;;;5014631;28;20452;-85
2021/10/03 02:08:18;;;;;;;1.30;0.67;;;15.00;99.90;;;;;;5014659;28;20455;-85
2021/10/03 02:10:48;;;;;;;1.97;0.70;;;15.00;99.90;;;;;;5014230;28;20841;-85
2021/10/03 02:13:17;;;;;;;0.80;0.50;;;15.00;99.90;;;;;;5014550;28;20451;-85
2021/10/03 02:15:47;;;;;;;1.13;0.87;;;15.10;99.90;;;;;;5014490;28;20450;-85
2021/10/03 02:18:18;;;;;;;0.60;0.57;;;15.00;99.90;;;;;;5014422;28;20459;-85
2021/10/03 02:20:46;;;;;;;1.37;0.50;;;15.10;99.90;;;;;;5014430;28;20837;-85
2021/10/03 02:23:14;;;;;;;1.13;0.70;;;15.10;99.90;;;;;;5014096;28;20442;-85
2021/10/03 02:25:45;;;;;;;0.50;0.50;;;15.10;99.90;;;;;;5014022;28;20451;-85
2021/10/03 02:28:12;;;;;;;2.60;1.23;;;15.10;99.90;;;;;;5014238;28;20558;-84
2021/10/03 02:30:41;;;;;;;1.43;0.50;;;15.10;99.90;;;;;;5013897;28;20482;-85
2021/10/03 02:33:08;;;;;;;1.30;0.60;;;15.20;99.90;;;;;;5013949;28;20456;-79
2021/10/03 02:35:38;;;;;;;4.00;0.63;;;15.20;99.90;;;;;;5013852;28;20947;-78
2021/10/03 02:38:05;;;;;;;0.97;0.70;;;15.10;99.90;;;;;;5013978;28;20483;-78
2021/10/03 02:40:32;;;;;;;3.37;0.80;;;15.10;99.90;;;;;;5013691;28;20994;-78
2021/10/03 02:43:00;;;;;;;1.07;0.83;;;15.10;99.90;;;;;;5014055;28;20454;-78
2021/10/03 02:45:29;;;;;;;0.90;0.90;;;15.10;99.90;;;;;;5013986;28;20490;-78
2021/10/03 02:47:58;;;;;;;0.60;0.60;;;15.10;99.90;;;;;;5013962;28;20476;-78
2021/10/03 02:50:25;;;;;;;0.43;0.40;;;15.10;99.90;;;;;;5013594;28;20467;-78
2021/10/03 02:52:51;;;;;;;0.70;0.57;;;15.00;99.90;;;;;;5013711;28;20931;-79
2021/10/03 02:55:18;;;;;;;0.90;0.60;;;15.00;99.90;;;;;;5014001;28;20468;-78
2021/10/03 02:57:45;;;;;;;1.27;0.60;;;14.90;99.90;;;;;;5013814;28;20451;-78
2021/10/03 03:00:13;;;;;;;0.60;0.60;;;14.80;99.90;;;;;;5013717;28;20472;-78
2021/10/03 03:02:40;;;;;;;1.00;0.50;;;14.80;99.90;;;;;;5013482;28;20462;-78
2021/10/03 03:05:10;;;;;;;1.20;1.00;;;14.70;99.90;;;;;;5013532;28;20496;-79
2021/10/03 03:07:37;;;;;;;0.43;0.43;;;14.70;99.90;;;;;;5012985;28;21096;-83
2021/10/03 03:10:05;;;;;;;0.60;0.50;;;14.70;99.90;;;;;;5013387;28;21002;-83
2021/10/03 03:12:32;;;;;;;1.27;0.63;;;14.60;99.90;;;;;;5013619;28;20452;-83
2021/10/03 03:14:58;;;;;;;0.50;0.50;;;14.50;99.90;;;;;;5013420;28;20432;-80
2021/10/03 03:17:26;;;;;;;0.57;0.57;;;14.50;99.90;;;;;;5013631;28;20444;-81
2021/10/03 03:19:52;;;;;;;0.63;0.63;;;14.50;99.90;;;;;;5013570;28;20467;-75
2021/10/03 03:22:20;;;;;;;0.70;0.53;;;14.40;99.90;;;;;;5013267;28;20851;-75
2021/10/03 03:24:47;;;;;;;0.60;0.50;;;14.40;99.90;;;;;;5013574;28;20448;-76
2021/10/03 03:27:14;;;;;;;0.90;0.60;;;14.40;99.90;;;;;;5013183;28;21011;-75
2021/10/03 03:29:41;;;;;;;0.70;0.70;;;14.40;99.90;;;;;;5013479;28;20451;-75
2021/10/03 03:32:08;;;;;;;0.50;0.50;;;14.40;99.90;;;;;;5013489;28;20451;-76
2021/10/03 03:34:35;;;;;;;1.00;0.83;;;14.40;99.90;;;;;;5013543;28;20455;-81
2021/10/03 03:37:02;;;;;;;0.60;0.60;;;14.40;99.90;;;;;;5013526;28;20448;-82
2021/10/03 03:39:30;;;;;;;1.20;0.90;;;14.50;99.90;;;;;;5013458;28;20456;-83
2021/10/03 03:41:56;;;;;;;0.70;0.70;;;14.60;99.90;;;;;;5013468;28;20444;-82
2021/10/03 03:44:23;;;;;;;0.90;0.60;;;14.60;99.90;;;;;;5013140;28;20459;-82
2021/10/03 03:46:51;;;;;;;0.60;0.60;;;14.60;99.90;;;;;;5013133;28;20502;-81
2021/10/03 03:49:17;;;;;;;0.70;0.60;;;14.60;99.90;;;;;;5013126;28;20439;-81
2021/10/03 03:51:44;;;;;;;0.70;0.40;;;14.60;99.90;;;;;;5013442;28;20467;-81
2021/10/03 03:54:11;;;;;;;1.60;0.83;;;14.70;99.90;;;;;;5013061;28;20450;-81
2021/10/03 03:56:39;;;;;;;0.93;0.53;;;14.60;99.90;;;;;;5013280;28;20443;-82
2021/10/03 03:59:06;;;;;;;6.00;0.63;;;14.70;99.90;;;;;;5013047;28;20432;-82
2021/10/03 04:01:33;;;;;;;0.60;0.60;;;14.50;99.90;;;;;;5012912;28;21000;-82
2021/10/03 04:03:59;;;;;;;0.40;0.40;;;14.50;99.90;;;;;;5012884;28;20824;-82
2021/10/03 04:06:26;;;;;;;0.60;0.60;;;14.50;99.90;;;;;;5012885;28;20440;-75
2021/10/03 04:08:53;;;;;;;0.97;0.47;;;14.40;99.90;;;;;;5013455;28;20449;-76
2021/10/03 04:11:20;;;;;;;0.60;0.53;;;14.40;99.90;;;;;;5012850;28;20470;-76
2021/10/03 04:13:48;;;;;;;1.80;1.23;;;14.40;99.90;;;;;;5012838;28;20458;-75
2021/10/03 04:16:15;;;;;;;0.60;0.57;;;14.40;99.90;;;;;;5013082;28;20463;-75
2021/10/03 04:18:42;;;;;;;1.63;0.50;;;14.30;99.90;;;;;;5016333;28;20447;-75
2021/10/03 04:21:09;;;;;;;0.50;0.50;;;14.30;99.90;;;;;;5016534;28;20482;-75
2021/10/03 04:23:35;;;;;;;0.63;0.63;;;14.30;99.90;;;;;;5016557;28;20435;-75
2021/10/03 04:26:02;;;;;;;0.60;0.60;;;14.30;99.90;;;;;;5016536;28;20459;-75
2021/10/03 04:28:29;;;;;;;1.67;0.40;;;14.30;99.90;;;;;;5016213;28;20483;-75
2021/10/03 04:30:57;;;;;;;0.53;0.50;;;14.30;99.90;;;;;;5016072;28;20504;-75
2021/10/03 04:33:24;;;;;;;1.73;0.50;;;14.30;99.90;;;;;;5016080;28;20958;-75
2021/10/03 04:35:51;;;;;;;2.00;0.60;;;14.30;99.90;;;;;;5016387;28;20451;-75
2021/10/03 04:38:17;;;;;;;0.53;0.50;;;14.40;99.90;;;;;;5016113;28;20439;-75
2021/10/03 04:40:44;;;;;;;1.17;1.07;;;14.40;99.90;;;;;;5016445;28;20471;-75
2021/10/03 04:43:11;;;;;;;0.80;0.50;;;14.40;99.90;;;;;;5016012;28;20801;-75
2021/10/03 04:45:41;;;;;;;0.70;0.70;;;14.30;99.90;;;;;;5015821;28;20467;-75
2021/10/03 04:48:10;;;;;;;0.60;0.50;;;14.30;99.90;;;;;;5015831;28;20619;-75
2021/10/03 04:50:36;;;;;;;0.40;0.40;;;14.30;99.90;;;;;;5015729;28;20471;-82
2021/10/03 04:53:03;;;;;;;0.50;0.50;;;14.40;99.90;;;;;;5016099;28;20455;-82
2021/10/03 04:55:30;;;;;;;0.80;0.47;;;14.40;99.90;;;;;;5016072;28;20447;-82
2021/10/03 04:57:57;;;;;;;0.60;0.50;;;14.40;99.90;;;;;;5015668;28;20966;-82
2021/10/03 05:00:24;;;;;;;0.63;0.63;;;14.50;99.90;;;;;;5015704;28;20476;-82
2021/10/03 05:02:50;;;;;;;0.70;0.53;;;14.50;99.90;;;;;;5015964;28;20455;-82
2021/10/03 05:05:18;;;;;;;0.57;0.57;;;14.50;99.90;;;;;;5015560;28;20821;-82
2021/10/03 05:07:45;;;;;;;0.60;0.50;;;14.60;99.90;;;;;;5015495;28;20480;-82
2021/10/03 05:10:12;;;;;;;0.40;0.30;;;14.70;99.90;;;;;;5015683;28;20836;-76
2021/10/03 05:12:39;;;;;;;0.50;0.40;;;14.70;99.90;;;;;;5015612;28;20436;-76
2021/10/03 05:15:06;;;;;;;0.43;0.40;;;14.70;99.90;;;;;;5015309;28;20811;-75
2021/10/03 05:17:33;;;;;;;2.10;0.60;;;14.80;99.90;;;;;;5015221;28;20455;-76
2021/10/03 05:20:00;;;;;;;0.40;0.40;;;14.80;99.90;;;;;;5015165;28;20479;-76
2021/10/03 05:22:28;;;;;;;0.70;0.70;;;14.80;99.90;;;;;;5015184;28;20833;-78
2021/10/03 05:24:55;;;;;;;0.60;0.60;;;14.80;99.90;;;;;;5015488;28;20455;-78
2021/10/03 05:27:21;;;;;;;1.20;0.53;;;14.80;99.90;;;;;;5015451;28;20548;-78
2021/10/03 05:29:48;;;;;;;0.60;0.60;;;14.80;99.90;;;;;;5014854;28;20452;-78
2021/10/03 05:32:15;;;;;;;0.50;0.50;;;14.70;99.90;;;;;;5015322;28;20479;-78
2021/10/03 05:34:42;;;;;;;1.90;0.80;;;14.70;99.90;;;;;;5015285;28;20444;-78
2021/10/03 05:37:09;;;;;;;1.13;0.90;;;14.70;99.90;;;;;;5014990;28;20445;-78
2021/10/03 05:39:37;;;;;;;0.70;0.70;;;14.60;99.90;;;;;;5015107;28;20452;-78
2021/10/03 05:42:04;;;;;;;3.03;0.90;;;14.60;99.90;;;;;;5015111;28;20874;-78
2021/10/03 05:44:31;;;;;;;1.27;0.60;;;14.60;99.90;;;;;;5015065;28;20447;-78
2021/10/03 05:46:58;;;;;;;0.70;0.70;;;14.60;99.90;;;;;;5014821;28;20487;-78
2021/10/03 05:49:24;;;;;;;1.10;0.50;;;14.60;99.90;;;;;;5014710;28;20439;-78
2021/10/03 05:51:51;;;;;;;0.50;0.40;;;14.60;99.90;;;;;;5014990;28;20455;-78
2021/10/03 05:54:18;;;;;;;0.60;0.60;;;14.60;99.90;;;;;;5014906;28;20447;-78
2021/10/03 05:56:46;;;;;;;0.70;0.70;;;14.70;99.90;;;;;;5014779;28;20455;-78
2021/10/03 05:59:13;;;;;;;1.23;0.77;;;14.70;99.90;;;;;;5014520;28;20439;-78
2021/10/03 06:01:40;;;;;;;0.60;0.60;;;14.70;99.90;;;;;;5014679;28;20475;-79
2021/10/03 06:04:08;;;;;;;0.40;0.40;;;14.70;99.90;;;;;;5014763;28;20455;-79
2021/10/03 06:06:35;;;;;;;1.37;0.63;;;14.70;99.90;;;;;;5014659;28;20459;-79
2021/10/03 06:09:01;;;;;;;0.33;0.30;;;14.70;99.90;;;;;;5014578;28;20494;-79
2021/10/03 06:11:28;;;;;;;0.70;0.57;;;14.70;99.90;;;;;;5014522;28;20467;-79
2021/10/03 06:13:58;;;;;;;0.90;0.33;;;14.80;99.90;;;;;;5014685;28;20451;-79
2021/10/03 06:16:25;;;;;;;0.70;0.40;;;14.80;99.90;;;;;;5014241;28;20444;-79
2021/10/03 06:18:52;;;;;;;0.97;0.60;;;14.90;99.90;;;;;;5014435;28;20436;-79
2021/10/03 06:21:20;;;;;;;1.17;0.53;;;15.00;99.90;;;;;;5014197;28;20486;-79
2021/10/03 06:23:47;;;;;;;0.73;0.47;;;15.10;99.90;;;;;;5014365;28;20466;-80
2021/10/03 06:26:15;;;;;;;0.87;0.57;;;15.20;99.90;;;;;;5014351;28;20455;-79
2021/10/03 06:28:42;;;;;;;0.60;0.60;;;15.30;99.90;;;;;;5014285;28;20472;-83
2021/10/03 06:31:10;;;;;;;0.50;0.50;;;15.50;99.90;;;;;;5013948;28;20979;-83
2021/10/03 06:33:39;;;;;;;1.43;0.70;;;15.50;99.90;;;;;;5014255;28;20455;-83
2021/10/03 06:36:07;;;;;;;0.63;0.63;;;15.60;99.90;;;;;;5014376;28;20798;-84
2021/10/03 06:38:34;;;;;;;0.50;0.50;;;15.70;99.90;;;;;;5013736;28;20444;-84
2021/10/03 06:41:02;;;;;;;1.10;0.77;;;15.70;99.90;;;;;;5013090;28;20476;-84
2021/10/03 06:43:29;;;;;;;0.70;0.60;;;15.70;99.90;;;;;;5014034;28;20450;-85
2021/10/03 06:45:56;;;;;;;1.03;0.50;;;15.80;99.90;;;;;;5013777;28;20503;-84
2021/10/03 06:48:24;;;;;;;1.00;0.90;;;15.90;99.90;;;;;;5013854;28;20501;-84
2021/10/03 06:50:51;;;;;;;0.60;0.43;;;15.90;99.90;;;;;;5013852;28;20475;-84
2021/10/03 06:53:18;;;;;;;1.10;0.50;;;16.00;99.90;;;;;;5013602;28;20539;-84
2021/10/03 06:55:45;;;;;;;1.50;0.53;;;16.00;99.90;;;;;;5013602;28;20884;-84
2021/10/03 06:58:12;;;;;;;0.40;0.40;;;16.10;99.90;;;;;;5013905;28;20428;-84
2021/10/03 07:00:39;;;;;;;1.60;0.90;;;16.10;99.90;;;;;;5013714;28;20471;-79
2021/10/03 07:03:05;;;;;;;0.40;0.40;;;16.10;99.90;;;;;;5013786;28;20447;-84
2021/10/03 07:05:34;;;;;;;0.60;0.60;;;16.10;99.90;;;;;;5014010;28;20440;-84
2021/10/03 07:08:03;;;;;;;1.47;0.50;;;16.10;99.90;;;;;;5013437;28;20990;-84
2021/10/03 07:10:30;;;;;;;0.40;0.40;;;16.10;99.90;;;;;;5013629;28;20479;-83
2021/10/03 07:12:56;;;;;;;1.23;0.57;;;16.00;99.90;;;;;;5013356;28;20801;-83
2021/10/03 07:15:23;;;;;;;0.80;0.63;;;16.00;99.90;;;;;;5013395;28;20458;-83
2021/10/03 07:17:50;;;;;;;2.00;0.87;;;16.00;99.90;;;;;;5013637;28;20448;-83
2021/10/03 07:20:17;;;;;;;0.60;0.40;;;16.00;99.90;;;;;;5013524;28;20475;-83
2021/10/03 07:22:45;;;;;;;1.27;0.50;;;16.00;99.90;;;;;;5013596;28;20456;-83
2021/10/03 07:25:12;;;;;;;0.70;0.67;;;16.10;99.90;;;;;;5013557;28;20452;-83
2021/10/03 07:27:39;;;;;;;3.30;0.60;;;16.10;99.90;;;;;;5013443;28;20459;-83
2021/10/03 07:30:07;;;;;;;0.70;0.50;;;16.20;99.90;;;;;;5013398;28;20486;-83
2021/10/03 07:32:34;;;;;;;0.50;0.50;;;16.20;99.90;;;;;;5013432;28;20438;-83
2021/10/03 07:35:00;;;;;;;0.53;0.50;;;16.30;99.90;;;;;;5013373;28;20455;-83
2021/10/03 07:37:27;;;;;;;0.50;0.40;;;16.30;99.90;;;;;;5013149;28;20459;-83
2021/10/03 07:39:56;;;;;;;0.57;0.50;;;16.40;99.90;;;;;;5013094;28;20997;-83
2021/10/03 07:42:22;;;;;;;1.17;0.70;;;16.50;99.90;;;;;;5013057;28;20509;-83
2021/10/03 07:44:49;;;;;;;0.87;0.50;;;16.50;99.90;;;;;;5014173;28;20454;-83
2021/10/03 07:47:16;;;;;;;2.37;0.50;;;16.60;99.90;;;;;;5012872;28;20490;-83
2021/10/03 07:49:43;;;;;;;0.80;0.80;;;16.60;99.90;;;;;;5013155;28;20498;-83
2021/10/03 07:52:10;;;;;;;1.10;0.53;;;16.60;99.90;;;;;;5014378;28;20412;-83
2021/10/03 07:54:36;;;;;;;0.50;0.43;;;16.60;99.90;;;;;;5017170;28;20458;-83
2021/10/03 07:57:05;;;;;;;1.80;0.80;;;16.70;99.90;;;;;;5016871;28;20435;-83
2021/10/03 07:59:32;;;;;;;0.40;0.40;;;16.70;99.90;;;;;;5017004;28;20450;-83
2021/10/03 08:01:59;;;;;;;0.70;0.67;;;16.70;99.90;;;;;;5017032;28;20462;-83
2021/10/03 08:04:26;;;;;;;0.70;0.50;;;16.80;99.90;;;;;;5016986;28;20458;-82
2021/10/03 08:06:53;;;;;;;0.60;0.60;;;16.80;99.90;;;;;;5017245;28;20451;-83
2021/10/03 08:09:20;;;;;;;1.13;0.70;;;16.90;99.90;;;;;;5016789;28;20522;-83
2021/10/03 08:11:46;;;;;;;1.23;0.50;;;16.90;99.90;;;;;;5016398;28;21017;-83
2021/10/03 08:14:14;;;;;;;0.43;0.43;;;17.00;99.90;;;;;;5016464;28;20451;-83
2021/10/03 08:16:41;;;;;;;0.80;0.60;;;17.00;99.90;;;;;;5016823;28;20455;-83
2021/10/03 08:19:08;;;;;;;0.40;0.40;;;17.10;99.90;;;;;;5017505;28;20456;-82
2021/10/03 08:21:35;;;;;;;0.77;0.77;;;17.20;99.90;;;;;;5016539;28;20476;-83
2021/10/03 08:24:01;;;;;;;1.17;0.70;;;17.30;99.90;;;;;;5016396;28;20794;-83
2021/10/03 08:26:28;;;;;;;0.70;0.50;;;17.40;99.90;;;;;;5016299;28;20945;-82
2021/10/03 08:28:55;;;;;;;3.23;0.90;;;17.40;99.90;;;;;;5016128;28;20479;-82
2021/10/03 08:31:23;;;;;;;1.00;1.00;;;17.50;99.90;;;;;;5016569;28;20467;-82
2021/10/03 08:33:50;;;;;;;0.70;0.70;;;17.50;99.90;;;;;;5015954;28;20820;-82
2021/10/03 08:36:17;;;;;;;1.63;0.50;;;17.60;99.90;;;;;;5016067;28;20435;-82
2021/10/03 08:38:44;;;;;;;0.60;0.50;;;17.70;99.90;;;;;;5016060;28;20962;-82
2021/10/03 08:41:11;;;;;;;1.33;0.90;;;17.70;99.90;;;;;;5016255;28;20475;-82
2021/10/03 08:43:38;;;;;;;0.90;0.80;;;17.70;99.90;;;;;;5015885;28;20455;-82
2021/10/03 08:46:06;;;;;;;1.10;0.80;;;17.80;99.90;;;;;;5015975;28;20487;-82
2021/10/03 08:48:34;;;;;;;1.40;1.00;;;17.70;99.90;;;;;;5016099;28;20494;-82
2021/10/03 08:51:01;;;;;;;1.37;0.50;;;17.80;99.90;;;;;;5015733;28;20982;-82
2021/10/03 08:53:28;;;;;;;1.33;0.70;;;17.70;99.90;;;;;;5015730;28;20454;-82
2021/10/03 08:55:56;;;;;;;0.70;0.70;;;17.70;99.90;;;;;;5016026;28;20475;-82
2021/10/03 08:58:24;;;;;;;0.40;0.40;;;17.60;99.90;;;;;;5015997;28;20886;-83
2021/10/03 09:00:51;;;;;;;2.30;0.80;;;17.60;99.90;;;;;;5015580;28;20521;-82
2021/10/03 09:03:19;;;;;;;0.60;0.53;;;17.50;99.90;;;;;;5015433;28;20781;-82
2021/10/03 09:05:52;;;;;;;1.20;0.90;;;17.50;99.90;;;;;;5015573;28;20439;-83
2021/10/03 09:08:21;;;;;;;1.13;0.60;;;17.50;99.90;;;;;;5015733;28;20439;-82
2021/10/03 09:10:54;;;;;;;1.37;0.77;;;17.50;99.90;;;;;;5015736;28;20467;-82
2021/10/03 09:13:23;;;;;;;0.70;0.60;;;17.50;99.90;;;;;;5015454;28;20911;-82
2021/10/03 09:16:06;;;;;;;0.50;0.50;;;17.50;99.90;;;;;;5015407;28;20435;-82
2021/10/03 09:18:38;;;;;;;1.60;0.70;;;17.50;99.90;;;;;;5015718;28;20857;-82
2021/10/03 09:21:07;;;;;;;1.50;0.97;;;17.60;99.90;;;;;;5015850;28;20471;-82
2021/10/03 09:23:34;;;;;;;1.23;0.70;;;17.60;99.90;;;;;;5015444;28;20437;-83
2021/10/03 09:26:02;;;;;;;1.03;0.60;;;17.60;99.90;;;;;;5015423;28;20782;-83
2021/10/03 09:28:31;;;;;;;1.07;0.70;;;17.70;99.90;;;;;;5015614;28;20487;-82
2021/10/03 09:31:08;;;;;;;0.70;0.50;;;17.70;99.90;;;;;;5015489;28;20482;-82
2021/10/03 09:33:40;;;;;;;0.60;0.60;;;17.80;99.90;;;;;;5015563;28;20439;-82
2021/10/03 09:36:08;;;;;;;0.70;0.63;;;17.90;99.90;;;;;;5015312;28;20459;-83
2021/10/03 09:38:47;;;;;;;0.60;0.60;;;17.90;99.90;;;;;;5015388;28;20451;-83
2021/10/03 09:41:14;;;;;;;0.67;0.67;;;17.90;99.90;;;;;;5014987;28;20475;-82
2021/10/03 09:43:45;;;;;;;0.80;0.50;;;17.90;99.90;;;;;;5014816;28;20778;-82
2021/10/03 09:46:32;;;;;;;0.50;0.50;;;17.90;99.90;;;;;;5014617;28;20986;-82
2021/10/03 09:48:59;;;;;;;1.40;0.50;;;17.90;99.90;;;;;;5014946;28;20472;-83
2021/10/03 09:51:27;;;;;;;0.40;0.40;;;17.90;99.90;;;;;;5014789;28;20463;-82
2021/10/03 09:53:54;;;;;;;2.00;1.03;;;17.90;99.90;;;;;;5014990;28;20447;-82
2021/10/03 09:56:21;;;;;;;0.60;0.60;;;17.90;99.90;;;;;;5014643;28;20950;-82
2021/10/03 09:58:49;;;;;;;0.60;0.60;;;17.90;99.90;;;;;;5014799;28;20458;-82
2021/10/03 10:01:17;;;;;;;0.90;0.60;;;17.80;99.90;;;;;;5014460;28;20818;-82
2021/10/03 10:03:44;;;;;;;0.80;0.50;;;17.80;99.90;;;;;;5014787;28;20505;-81
2021/10/03 10:06:12;;;;;;;1.03;0.67;;;17.80;99.90;;;;;;5015038;28;20451;-82
2021/10/03 10:08:41;;;;;;;0.90;0.50;;;17.90;99.90;;;;;;5014618;28;20492;-82
2021/10/03 10:11:10;;;;;;;0.60;0.50;;;18.00;99.90;;;;;;5014556;28;20478;-82
2021/10/03 10:13:39;;;;;;;1.53;0.80;;;18.00;99.90;;;;;;5014722;28;20825;-82
2021/10/03 10:16:47;;;;;;;1.10;0.80;;;18.10;99.90;;;;;;5014445;28;20459;-82
2021/10/03 10:19:38;;;;;;;0.73;0.73;;;18.20;99.90;;;;;;5014673;28;20440;-82
2021/10/03 10:22:36;;;;;;;0.60;0.57;;;18.30;99.90;;;;;;5014449;28;20526;-82
2021/10/03 10:25:20;;;;;;;0.70;0.50;;;18.40;99.90;;;;;;5014669;28;20764;-81
2021/10/03 10:28:07;;;;;;;0.73;0.73;;;18.40;99.90;;;;;;5014533;28;20515;-77
2021/10/03 10:30:36;;;;;;;0.70;0.60;;;18.40;99.90;;;;;;5013874;28;20549;-76
2021/10/03 10:33:17;;;;;;;1.07;0.90;;;18.40;99.90;;;;;;5014229;28;20436;-77
2021/10/03 10:35:45;;;;;;;0.40;0.40;;;18.40;99.90;;;;;;5013934;28;20899;-77
2021/10/03 10:38:21;;;;;;;1.93;0.67;;;18.50;99.90;;;;;;5014332;28;20436;-77
2021/10/03 10:40:51;;;;;;;1.53;0.73;;;18.50;99.90;;;;;;5013998;28;21025;-77
2021/10/03 10:43:46;;;;;;;0.60;0.50;;;18.50;99.90;;;;;;5014219;28;20534;-77
2021/10/03 10:46:43;;;;;;;0.70;0.50;;;18.50;99.90;;;;;;5013589;28;20487;-77
2021/10/03 10:49:47;;;;;;;1.27;0.60;;;18.50;99.90;;;;;;5013848;28;20476;-77
2021/10/03 10:52:29;;;;;;;1.67;0.67;;;18.60;99.90;;;;;;5012031;28;20534;-77
2021/10/03 10:55:35;;;;;;;0.80;0.70;;;18.60;99.90;;;;;;5013934;28;20803;-77
2021/10/03 10:58:19;;;;;;;0.70;0.50;;;18.60;99.90;;;;;;5013612;28;20879;-77
2021/10/03 11:00:54;;;;;;;0.73;0.70;;;18.60;99.90;;;;;;5013795;28;20471;-77
2021/10/03 11:03:21;;;;;;;2.00;1.07;;;18.60;99.90;;;;;;5013822;28;20442;-77
2021/10/03 11:05:48;;;;;;;0.60;0.60;;;18.60;99.90;;;;;;5013859;28;20416;-77
2021/10/03 11:08:17;;;;;;;1.53;0.70;;;18.60;99.90;;;;;;5013574;28;20795;-77
2021/10/03 11:11:17;;;;;;;2.03;0.90;;;18.60;99.90;;;;;;5013503;28;20494;-77
2021/10/03 11:13:46;;;;;;;0.80;0.80;;;18.60;99.90;;;;;;5013361;28;20424;-77
2021/10/03 11:16:24;;;;;;;1.40;0.50;;;18.60;99.90;;;;;;5013677;28;20435;-77
2021/10/03 11:18:52;;;;;;;1.20;0.60;;;18.70;99.90;;;;;;5013674;28;20438;-77
2021/10/03 11:21:24;;;;;;;0.47;0.47;;;18.70;99.90;;;;;;5013581;28;20471;-77
2021/10/03 11:23:51;;;;;;;0.63;0.63;;;18.80;99.90;;;;;;5014174;28;20432;-77
2021/10/03 11:26:19;;;;;;;1.53;0.53;;;18.90;99.90;;;;;;5013635;28;20435;-77
2021/10/03 11:28:55;;;;;;;1.20;0.70;;;19.10;99.90;;;;;;5017487;28;20431;-77
2021/10/03 11:31:36;;;;;;;0.70;0.70;;;19.20;99.90;;;;;;5017489;28;20471;-77
2021/10/03 11:34:03;;;;;;;1.23;0.50;;;19.30;99.90;;;;;;5017651;28;20449;-77
2021/10/03 11:36:30;;;;;;;0.70;0.53;;;19.30;99.90;;;;;;5017181;28;20443;-77
2021/10/03 11:38:59;;;;;;;0.57;0.50;;;19.30;99.90;;;;;;5017398;28;20436;-77
2021/10/03 11:41:26;;;;;;;0.60;0.60;;;19.30;99.90;;;;;;5017302;28;20574;-77
2021/10/03 11:43:54;;;;;;;1.33;0.53;;;19.30;99.90;;;;;;5017253;28;20439;-77
2021/10/03 11:46:21;;;;;;;1.20;0.70;;;19.30;99.90;;;;;;5016906;28;20482;-77
2021/10/03 11:48:51;;;;;;;0.80;0.80;;;19.30;99.90;;;;;;5017245;28;20439;-77
2021/10/03 11:51:17;;;;;;;0.80;0.60;;;19.30;99.90;;;;;;5017039;28;20467;-77
2021/10/03 11:53:47;;;;;;;0.83;0.57;;;19.30;99.90;;;;;;5017201;28;20458;-76
2021/10/03 11:56:17;;;;;;;1.60;0.90;;;19.40;99.90;;;;;;5017388;28;20457;-77
2021/10/03 11:58:45;;;;;;;1.90;1.50;;;19.50;99.90;;;;;;5017023;28;20447;-77
2021/10/03 12:01:13;;;;;;;1.43;0.60;;;19.60;99.90;;;;;;5016601;28;20477;-77
2021/10/03 12:03:48;;;;;;;1.20;0.47;;;19.70;99.90;;;;;;5016894;28;20448;-77
2021/10/03 12:06:19;;;;;;;1.57;0.70;;;19.80;99.90;;;;;;5016603;28;20434;-77
2021/10/03 12:08:46;;;;;;;0.80;0.70;;;19.80;99.90;;;;;;5016818;28;20458;-77
2021/10/03 12:11:13;;;;;;;1.70;0.77;;;19.80;99.90;;;;;;5016319;28;20998;-77
2021/10/03 12:13:40;;;;;;;1.03;0.57;;;19.90;99.90;;;;;;5016799;28;20455;-77
2021/10/03 12:16:16;;;;;;;0.40;0.40;;;20.00;99.90;;;;;;5016759;28;20435;-77
2021/10/03 12:18:45;;;;;;;0.87;0.60;;;20.10;99.90;;;;;;5016600;28;20489;-76
2021/10/03 12:21:18;;;;;;;0.60;0.50;;;20.20;99.90;;;;;;5016229;28;20962;-76
2021/10/03 12:23:54;;;;;;;0.70;0.70;;;20.30;99.90;;;;;;5016318;28;20439;-77
2021/10/03 12:26:27;;;;;;;0.97;0.60;;;20.40;99.90;;;;;;5016781;28;20439;-77
2021/10/03 12:29:08;;;;;;;1.20;0.60;;;20.40;99.90;;;;;;5016472;28;20439;-77
2021/10/03 12:31:42;;;;;;;2.17;0.70;;;20.40;99.90;;;;;;5016549;28;20455;-76
2021/10/03 12:34:29;;;;;;;0.50;0.50;;;20.50;99.90;;;;;;5016484;28;20434;-76
2021/10/03 12:37:02;;;;;;;0.80;0.50;;;20.50;99.90;;;;;;5016045;28;20437;-76
2021/10/03 12:39:31;;;;;;;1.93;0.57;;;20.50;99.90;;;;;;5016273;28;20435;-76
2021/10/03 12:42:03;;;;;;;0.50;0.50;;;20.50;99.90;;;;;;5016273;28;20435;-76
2021/10/03 12:44:33;;;;;;;0.50;0.50;;;20.50;99.90;;;;;;5016927;28;20792;-79
2021/10/03 12:47:02;;;;;;;1.33;0.70;;;20.60;99.90;;;;;;5016229;28;20573;-81
2021/10/03 12:49:29;;;;;;;0.90;0.53;;;20.60;99.90;;;;;;5016037;28;20471;-76
2021/10/03 12:51:56;;;;;;;0.80;0.40;;;20.60;99.90;;;;;;5015922;28;20467;-76
2021/10/03 12:54:23;;;;;;;1.33;0.80;;;20.60;99.90;;;;;;5016101;28;20414;-76
2021/10/03 12:56:52;;;;;;;0.63;0.60;;;20.60;99.90;;;;;;5015892;28;20455;-76